Time;durP1;ratioP1;P1;durP2;ratioP2;P2;SDS_P1;SDS_P2;PMS_P1;PMS_P2;Temp;Humidity;BMP_temperature;BMP_pressure;BME280_temperature;BME280_humidity;BME280_pressure;Samples;Min_cycle;Max_cycle;Signal;HPM_P1;HPM_P2
2021/12/03 00:00:55;;;;;;;3.78;1.55;;;;;;;;;;5076176;28;20101;-43
2021/12/03 00:03:20;;;;;;;1.70;1.17;;;;;;;;;;5080837;28;20083;-42
2021/12/03 00:05:47;;;;;;;3.55;1.80;;;;;;;;;;5072621;28;20037;-43
2021/12/03 00:08:12;;;;;;;1.08;0.98;;;;;;;;;;5079840;28;20074;-43
2021/12/03 00:10:39;;;;;;;1.83;1.25;;;;;;;;;;5073940;28;20060;-43
2021/12/03 00:13:07;;;;;;;2.45;1.42;;;;;;;;;;5110583;27;20047;-44
2021/12/03 00:15:35;;;;;;;3.13;1.33;;;;;;;;;;5080760;28;20127;-43
2021/12/03 00:18:00;;;;;;;2.22;1.40;;;;;;;;;;5074506;28;20028;-43
2021/12/03 00:20:27;;;;;;;2.80;1.50;;;;;;;;;;5080868;28;20101;-43
2021/12/03 00:22:57;;;;;;;3.13;1.55;;;;;;;;;;5079051;28;20024;-46
2021/12/03 00:25:24;;;;;;;1.50;1.35;;;;;;;;;;5079343;28;20569;-43
2021/12/03 00:27:50;;;;;;;5.13;1.35;;;;;;;;;;5076261;28;20370;-44
2021/12/03 00:30:17;;;;;;;2.53;1.35;;;;;;;;;;5080731;28;20028;-43
2021/12/03 00:32:44;;;;;;;2.17;1.10;;;;;;;;;;5074338;28;20519;-45
2021/12/03 00:35:11;;;;;;;2.38;1.42;;;;;;;;;;5072865;28;20032;-42
2021/12/03 00:37:38;;;;;;;1.77;1.10;;;;;;;;;;5075939;28;20169;-46
2021/12/03 00:40:09;;;;;;;1.60;1.50;;;;;;;;;;5074453;28;20457;-43
2021/12/03 00:42:36;;;;;;;2.88;1.52;;;;;;;;;;5078806;28;20461;-46
2021/12/03 00:45:04;;;;;;;2.72;1.30;;;;;;;;;;5085919;28;20395;-43
2021/12/03 00:47:30;;;;;;;4.38;1.20;;;;;;;;;;5077849;28;20050;-43
2021/12/03 00:49:56;;;;;;;4.60;1.45;;;;;;;;;;5075438;28;20024;-43
2021/12/03 00:52:21;;;;;;;2.17;1.23;;;;;;;;;;5072951;28;20029;-42
2021/12/03 00:54:49;;;;;;;1.67;1.20;;;;;;;;;;5076487;28;20028;-43
2021/12/03 00:57:15;;;;;;;2.38;1.50;;;;;;;;;;5077171;28;20023;-43
2021/12/03 00:59:41;;;;;;;4.43;1.40;;;;;;;;;;5076182;28;20461;-43
2021/12/03 01:02:07;;;;;;;2.20;1.60;;;;;;;;;;5072299;28;20098;-43
2021/12/03 01:04:33;;;;;;;3.25;1.30;;;;;;;;;;5078013;28;20085;-44
2021/12/03 01:06:59;;;;;;;1.65;1.20;;;;;;;;;;5082164;28;20077;-43
2021/12/03 01:09:25;;;;;;;3.55;1.30;;;;;;;;;;5076416;28;20369;-44
2021/12/03 01:11:50;;;;;;;2.92;1.33;;;;;;;;;;5078761;28;20099;-44
2021/12/03 01:14:18;;;;;;;2.33;1.35;;;;;;;;;;5080347;28;20041;-42
2021/12/03 01:16:44;;;;;;;1.40;1.30;;;;;;;;;;5071483;28;20032;-43
2021/12/03 01:19:10;;;;;;;2.03;1.58;;;;;;;;;;5079040;28;20471;-44
2021/12/03 01:21:37;;;;;;;3.95;1.40;;;;;;;;;;5074631;28;20089;-43
2021/12/03 01:24:05;;;;;;;1.25;1.15;;;;;;;;;;5077043;28;20135;-43
2021/12/03 01:26:32;;;;;;;1.27;1.17;;;;;;;;;;5079391;28;20122;-43
2021/12/03 01:28:58;;;;;;;2.03;1.23;;;;;;;;;;5070414;28;20044;-42
2021/12/03 01:31:24;;;;;;;2.13;1.40;;;;;;;;;;5076532;28;20041;-42
2021/12/03 01:33:50;;;;;;;2.30;1.38;;;;;;;;;;5072887;28;20741;-47
2021/12/03 01:36:16;;;;;;;3.80;1.70;;;;;;;;;;5071779;28;20093;-43
2021/12/03 01:38:42;;;;;;;1.73;1.17;;;;;;;;;;5077415;28;20028;-42
2021/12/03 01:41:08;;;;;;;3.40;1.80;;;;;;;;;;5075160;28;20047;-43
2021/12/03 01:43:34;;;;;;;1.75;1.30;;;;;;;;;;5074537;28;20088;-44
2021/12/03 01:46:02;;;;;;;2.13;1.25;;;;;;;;;;5076240;28;20032;-42
2021/12/03 01:48:29;;;;;;;4.45;1.40;;;;;;;;;;5075541;28;20039;-44
2021/12/03 01:50:56;;;;;;;5.40;1.70;;;;;;;;;;5077311;28;20028;-43
2021/12/03 01:53:25;;;;;;;1.80;1.10;;;;;;;;;;5079722;28;20033;-42
2021/12/03 01:55:52;;;;;;;8.35;0.98;;;;;;;;;;5073925;28;20036;-44
2021/12/03 01:58:18;;;;;;;1.33;1.20;;;;;;;;;;5077172;28;20024;-45
2021/12/03 02:00:51;;;;;;;2.13;1.00;;;;;;;;;;5076737;28;20028;-42
2021/12/03 02:03:18;;;;;;;1.83;1.17;;;;;;;;;;5074132;28;20503;-43
2021/12/03 02:05:45;;;;;;;1.85;1.30;;;;;;;;;;5079676;28;20020;-44
2021/12/03 02:08:11;;;;;;;1.60;1.10;;;;;;;;;;5074388;28;20119;-45
2021/12/03 02:10:38;;;;;;;0.80;0.80;;;;;;;;;;5074021;28;20032;-44
2021/12/03 02:13:05;;;;;;;2.13;1.25;;;;;;;;;;5084419;28;20043;-45
2021/12/03 02:15:31;;;;;;;1.15;0.70;;;;;;;;;;5085084;28;20024;-43
2021/12/03 02:17:57;;;;;;;2.38;0.85;;;;;;;;;;5084116;28;20480;-44
2021/12/03 02:20:24;;;;;;;1.52;0.98;;;;;;;;;;5079835;28;20060;-44
2021/12/03 02:22:50;;;;;;;1.75;1.00;;;;;;;;;;5078093;28;20028;-43
2021/12/03 02:25:22;;;;;;;1.38;0.93;;;;;;;;;;5078891;28;20044;-44
2021/12/03 02:27:54;;;;;;;1.00;1.00;;;;;;;;;;5088764;28;20036;-43
2021/12/03 02:30:21;;;;;;;5.38;1.15;;;;;;;;;;5080110;28;20043;-45
2021/12/03 02:32:49;;;;;;;1.55;0.70;;;;;;;;;;5084308;28;20104;-44
2021/12/03 02:35:16;;;;;;;5.00;1.23;;;;;;;;;;5086612;28;20035;-44
2021/12/03 02:37:42;;;;;;;1.17;0.90;;;;;;;;;;5081771;28;20058;-43
2021/12/03 02:40:09;;;;;;;1.55;0.98;;;;;;;;;;5078912;28;20047;-46
2021/12/03 02:42:35;;;;;;;4.13;1.10;;;;;;;;;;5080469;28;20593;-42
2021/12/03 02:45:01;;;;;;;2.67;0.90;;;;;;;;;;5078659;28;20039;-43
2021/12/03 02:47:27;;;;;;;2.35;1.50;;;;;;;;;;5075648;28;20032;-46
2021/12/03 02:49:53;;;;;;;2.28;1.00;;;;;;;;;;5078166;28;20041;-42
2021/12/03 02:52:18;;;;;;;2.00;1.00;;;;;;;;;;5079145;28;20029;-42
2021/12/03 02:54:44;;;;;;;1.05;0.95;;;;;;;;;;5076678;28;20020;-43
2021/12/03 02:57:10;;;;;;;1.38;0.75;;;;;;;;;;5076818;28;20428;-46
2021/12/03 02:59:36;;;;;;;1.40;0.93;;;;;;;;;;5078889;28;20534;-43
2021/12/03 03:02:02;;;;;;;1.10;0.80;;;;;;;;;;5077286;28;20032;-44
2021/12/03 03:04:29;;;;;;;1.33;1.00;;;;;;;;;;5075180;28;20040;-44
2021/12/03 03:06:54;;;;;;;1.00;0.77;;;;;;;;;;5075544;28;20036;-44
2021/12/03 03:09:20;;;;;;;2.55;1.20;;;;;;;;;;5075806;28;20142;-46
2021/12/03 03:11:46;;;;;;;2.40;0.98;;;;;;;;;;5073283;28;20113;-46
2021/12/03 03:14:12;;;;;;;1.10;1.00;;;;;;;;;;5078733;28;20032;-44
2021/12/03 03:16:38;;;;;;;2.15;1.10;;;;;;;;;;5078592;28;20451;-43
2021/12/03 03:19:19;;;;;;;1.08;0.95;;;;;;;;;;5078199;28;20035;-44
2021/12/03 03:21:46;;;;;;;3.97;1.05;;;;;;;;;;5079586;28;20111;-44
2021/12/03 03:24:13;;;;;;;1.40;0.80;;;;;;;;;;5076424;28;20178;-46
2021/12/03 03:26:40;;;;;;;2.75;1.30;;;;;;;;;;5078752;28;20033;-44
2021/12/03 03:29:08;;;;;;;3.22;1.27;;;;;;;;;;5084047;28;20063;-47
2021/12/03 03:31:36;;;;;;;1.52;1.08;;;;;;;;;;5074963;28;20024;-46
2021/12/03 03:34:03;;;;;;;1.58;0.93;;;;;;;;;;5084169;28;20461;-44
2021/12/03 03:36:37;;;;;;;1.48;1.15;;;;;;;;;;5079306;28;20046;-46
2021/12/03 03:39:08;;;;;;;1.92;0.93;;;;;;;;;;5080227;28;20119;-44
2021/12/03 03:41:34;;;;;;;2.08;1.20;;;;;;;;;;5073196;28;20107;-45
2021/12/03 03:44:00;;;;;;;0.90;0.90;;;;;;;;;;5081335;28;20453;-43
2021/12/03 03:46:26;;;;;;;2.60;1.05;;;;;;;;;;5084826;28;20046;-43
2021/12/03 03:48:52;;;;;;;1.38;1.20;;;;;;;;;;5076114;28;20123;-44
2021/12/03 03:51:18;;;;;;;1.40;1.02;;;;;;;;;;5077439;28;20107;-44
2021/12/03 03:53:45;;;;;;;3.47;1.00;;;;;;;;;;5075054;28;20055;-45
2021/12/03 03:56:11;;;;;;;2.28;0.93;;;;;;;;;;5079978;28;20039;-44
2021/12/03 03:58:38;;;;;;;3.22;0.85;;;;;;;;;;5080191;28;20036;-43
2021/12/03 04:01:05;;;;;;;2.08;1.30;;;;;;;;;;5078956;28;20116;-42
2021/12/03 04:03:31;;;;;;;3.72;1.20;;;;;;;;;;5078562;28;20024;-49
2021/12/03 04:05:57;;;;;;;2.60;1.08;;;;;;;;;;5077384;28;20035;-43
2021/12/03 04:08:23;;;;;;;5.32;1.80;;;;;;;;;;5079366;28;20446;-43
2021/12/03 04:10:50;;;;;;;2.95;1.38;;;;;;;;;;5075818;28;20040;-47
2021/12/03 04:13:15;;;;;;;3.63;0.98;;;;;;;;;;5079407;28;20068;-49
2021/12/03 04:15:42;;;;;;;3.00;1.58;;;;;;;;;;5075940;28;20607;-46
2021/12/03 04:18:09;;;;;;;4.00;1.10;;;;;;;;;;5071817;28;20025;-48
2021/12/03 04:20:35;;;;;;;5.25;1.60;;;;;;;;;;5076181;28;20032;-46
2021/12/03 04:23:02;;;;;;;1.48;1.30;;;;;;;;;;5080605;28;20040;-43
2021/12/03 04:25:28;;;;;;;3.40;1.20;;;;;;;;;;5072906;28;20035;-43
2021/12/03 04:27:54;;;;;;;3.55;1.20;;;;;;;;;;5075126;28;20032;-44
2021/12/03 04:30:25;;;;;;;1.20;1.02;;;;;;;;;;5079211;28;20028;-44
2021/12/03 04:32:53;;;;;;;3.00;1.30;;;;;;;;;;5072548;28;20218;-47
2021/12/03 04:35:19;;;;;;;1.85;1.17;;;;;;;;;;5080557;28;20055;-49
2021/12/03 04:37:45;;;;;;;3.40;1.38;;;;;;;;;;5077400;28;20060;-45
2021/12/03 04:40:13;;;;;;;3.33;1.05;;;;;;;;;;5075845;28;20062;-47
2021/12/03 04:42:39;;;;;;;1.85;1.23;;;;;;;;;;5076281;28;20163;-45
2021/12/03 04:45:07;;;;;;;3.03;1.00;;;;;;;;;;5076525;28;20059;-45
2021/12/03 04:47:32;;;;;;;1.00;0.90;;;;;;;;;;5079907;28;20108;-45
2021/12/03 04:49:58;;;;;;;1.25;1.13;;;;;;;;;;5073060;28;20119;-44
2021/12/03 04:52:25;;;;;;;1.05;0.93;;;;;;;;;;5077430;28;20063;-45
2021/12/03 04:54:51;;;;;;;1.55;1.00;;;;;;;;;;5080420;28;20535;-44
2021/12/03 04:57:17;;;;;;;1.60;1.10;;;;;;;;;;5075363;28;20505;-48
2021/12/03 04:59:42;;;;;;;2.83;1.20;;;;;;;;;;5078760;28;20032;-47
2021/12/03 05:02:08;;;;;;;1.58;0.85;;;;;;;;;;5077199;28;20036;-45
2021/12/03 05:04:38;;;;;;;2.45;0.90;;;;;;;;;;5071248;28;20048;-46
2021/12/03 05:09:37;;;;;;;2.55;1.08;;;;;;;;;;5071512;28;20466;-45
2021/12/03 05:12:03;;;;;;;3.33;1.13;;;;;;;;;;5075105;28;20036;-45
2021/12/03 05:14:29;;;;;;;2.05;0.95;;;;;;;;;;5076961;28;20036;-46
2021/12/03 05:16:55;;;;;;;4.85;1.00;;;;;;;;;;5076791;28;20039;-44
2021/12/03 05:19:21;;;;;;;4.25;1.55;;;;;;;;;;5077425;28;20024;-46
2021/12/03 05:21:47;;;;;;;2.15;1.45;;;;;;;;;;5079056;28;20063;-44
2021/12/03 05:24:13;;;;;;;1.67;1.55;;;;;;;;;;5078782;28;20493;-48
2021/12/03 05:26:39;;;;;;;5.60;1.58;;;;;;;;;;5081916;28;20548;-43
2021/12/03 05:29:07;;;;;;;2.03;1.20;;;;;;;;;;5073993;28;20035;-45
2021/12/03 05:31:34;;;;;;;6.55;1.48;;;;;;;;;;5080008;28;20074;-43
2021/12/03 05:34:01;;;;;;;1.52;1.08;;;;;;;;;;5078991;28;20048;-43
2021/12/03 05:36:27;;;;;;;3.55;1.60;;;;;;;;;;5074681;28;20041;-42
2021/12/03 05:38:53;;;;;;;5.57;1.10;;;;;;;;;;5077920;28;20662;-42
2021/12/03 05:41:18;;;;;;;5.18;1.67;;;;;;;;;;5080561;28;20080;-42
2021/12/03 05:43:44;;;;;;;1.60;1.20;;;;;;;;;;5079057;28;20028;-43
2021/12/03 05:46:10;;;;;;;3.75;1.27;;;;;;;;;;5082495;28;20032;-44
2021/12/03 05:48:36;;;;;;;1.30;1.20;;;;;;;;;;5077785;28;20032;-43
2021/12/03 05:51:02;;;;;;;4.03;1.70;;;;;;;;;;5083399;28;20029;-43
2021/12/03 05:53:28;;;;;;;5.47;1.27;;;;;;;;;;5084194;28;20039;-45
2021/12/03 05:55:54;;;;;;;2.15;1.27;;;;;;;;;;5081808;28;20087;-43
2021/12/03 05:58:20;;;;;;;3.17;1.40;;;;;;;;;;5081295;28;20036;-43
2021/12/03 06:00:47;;;;;;;3.67;1.40;;;;;;;;;;5086031;28;20058;-42
2021/12/03 06:03:14;;;;;;;2.45;1.30;;;;;;;;;;5077751;28;20034;-43
2021/12/03 06:05:42;;;;;;;4.60;1.55;;;;;;;;;;5084168;28;20127;-43
2021/12/03 06:08:09;;;;;;;3.55;1.60;;;;;;;;;;5076843;28;20072;-43
2021/12/03 06:10:35;;;;;;;2.55;1.48;;;;;;;;;;5078737;28;20059;-44
2021/12/03 06:13:02;;;;;;;8.13;1.48;;;;;;;;;;5084128;28;20115;-43
2021/12/03 06:15:28;;;;;;;1.50;1.20;;;;;;;;;;5084125;28;20032;-43
2021/12/03 06:17:54;;;;;;;4.30;1.80;;;;;;;;;;5079295;28;20043;-43
2021/12/03 06:20:20;;;;;;;1.40;1.30;;;;;;;;;;5077908;28;20032;-43
2021/12/03 06:22:47;;;;;;;7.00;1.80;;;;;;;;;;5085301;28;20038;-45
2021/12/03 06:25:14;;;;;;;3.92;1.90;;;;;;;;;;5081316;28;20048;-45
2021/12/03 06:27:40;;;;;;;5.18;1.42;;;;;;;;;;5083007;28;20038;-44
2021/12/03 06:30:09;;;;;;;3.03;1.73;;;;;;;;;;5077142;28;20047;-42
2021/12/03 06:32:36;;;;;;;4.13;1.63;;;;;;;;;;5083815;28;20467;-43
2021/12/03 06:35:03;;;;;;;2.42;1.50;;;;;;;;;;5079838;28;25683;-42
2021/12/03 06:37:32;;;;;;;4.53;1.48;;;;;;;;;;5116935;27;20031;-43
2021/12/03 06:39:58;;;;;;;3.42;2.00;;;;;;;;;;5086351;28;20025;-44
2021/12/03 06:42:24;;;;;;;6.40;1.95;;;;;;;;;;5080502;28;20032;-44
2021/12/03 06:44:50;;;;;;;2.58;1.40;;;;;;;;;;5082088;28;20040;-43
2021/12/03 06:47:16;;;;;;;2.95;1.67;;;;;;;;;;5080236;28;20546;-42
2021/12/03 06:49:41;;;;;;;7.05;2.38;;;;;;;;;;5084461;28;20376;-43
2021/12/03 06:52:11;;;;;;;3.40;1.70;;;;;;;;;;5079590;28;20082;-43
2021/12/03 06:54:37;;;;;;;10.68;1.40;;;;;;;;;;5081694;28;20491;-44
2021/12/03 06:57:05;;;;;;;2.90;1.63;;;;;;;;;;5074576;28;20033;-43
2021/12/03 06:59:31;;;;;;;1.52;1.38;;;;;;;;;;5080251;28;20140;-42
2021/12/03 07:01:57;;;;;;;3.58;1.92;;;;;;;;;;5080753;28;20032;-43
2021/12/03 07:04:24;;;;;;;3.35;1.65;;;;;;;;;;5078592;28;20468;-43
2021/12/03 07:06:50;;;;;;;2.47;1.75;;;;;;;;;;5075301;28;20036;-43
2021/12/03 07:09:16;;;;;;;3.05;1.50;;;;;;;;;;5079777;28;20104;-43
2021/12/03 07:11:43;;;;;;;3.67;1.80;;;;;;;;;;5077752;28;20048;-43
2021/12/03 07:14:09;;;;;;;2.38;1.27;;;;;;;;;;5081451;28;20115;-42
2021/12/03 07:16:35;;;;;;;2.67;1.88;;;;;;;;;;5079084;28;20541;-43
2021/12/03 07:19:01;;;;;;;2.80;1.80;;;;;;;;;;5074608;28;20101;-43
2021/12/03 07:21:27;;;;;;;4.35;1.65;;;;;;;;;;5075602;28;20047;-43
2021/12/03 07:23:53;;;;;;;1.50;1.40;;;;;;;;;;5076688;28;20044;-43
2021/12/03 07:26:21;;;;;;;1.60;1.30;;;;;;;;;;5077674;28;20033;-43
2021/12/03 07:28:47;;;;;;;3.80;1.55;;;;;;;;;;5077335;28;20036;-43
2021/12/03 07:31:13;;;;;;;2.13;1.70;;;;;;;;;;5074389;28;20043;-44
2021/12/03 07:33:40;;;;;;;1.33;1.10;;;;;;;;;;5079131;28;20469;-45
2021/12/03 07:36:06;;;;;;;3.63;1.80;;;;;;;;;;5077843;28;20082;-44
2021/12/03 07:38:36;;;;;;;3.78;1.58;;;;;;;;;;5082163;28;20054;-41
2021/12/03 07:41:02;;;;;;;6.57;1.75;;;;;;;;;;5078505;28;20032;-46
2021/12/03 07:43:29;;;;;;;1.98;1.35;;;;;;;;;;5074597;28;20123;-43
2021/12/03 07:45:55;;;;;;;2.35;1.48;;;;;;;;;;5074952;28;20485;-44
2021/12/03 07:48:21;;;;;;;4.45;1.80;;;;;;;;;;5081943;28;20114;-44
2021/12/03 07:50:48;;;;;;;1.80;1.40;;;;;;;;;;5078472;28;20040;-44
2021/12/03 07:53:17;;;;;;;3.55;1.45;;;;;;;;;;5083434;28;20491;-43
2021/12/03 07:55:47;;;;;;;4.28;1.58;;;;;;;;;;5079600;28;20032;-44
2021/12/03 07:58:14;;;;;;;4.07;1.80;;;;;;;;;;5080640;28;20107;-43
2021/12/03 08:00:40;;;;;;;6.65;1.67;;;;;;;;;;5074721;28;20032;-44
2021/12/03 08:03:06;;;;;;;2.80;1.73;;;;;;;;;;5082825;28;20035;-44
2021/12/03 08:05:32;;;;;;;1.48;1.27;;;;;;;;;;5080824;28;20032;-44
2021/12/03 08:07:58;;;;;;;1.92;1.45;;;;;;;;;;5084246;28;20099;-45
2021/12/03 08:10:25;;;;;;;1.70;1.40;;;;;;;;;;5076719;28;20036;-43
2021/12/03 08:12:51;;;;;;;1.85;1.50;;;;;;;;;;5079207;28;20039;-44
2021/12/03 08:15:17;;;;;;;3.20;1.92;;;;;;;;;;5075793;28;20032;-44
2021/12/03 08:17:47;;;;;;;2.50;1.75;;;;;;;;;;5078486;28;20154;-44
2021/12/03 08:20:12;;;;;;;1.60;1.50;;;;;;;;;;5078607;28;20537;-44
2021/12/03 08:22:38;;;;;;;2.28;1.55;;;;;;;;;;5073264;28;20020;-44
2021/12/03 08:25:05;;;;;;;3.13;1.77;;;;;;;;;;5071477;28;20040;-44
2021/12/03 08:27:30;;;;;;;4.78;2.03;;;;;;;;;;5073911;28;20060;-44
2021/12/03 08:29:56;;;;;;;5.20;2.15;;;;;;;;;;5072984;28;20066;-44
2021/12/03 08:32:22;;;;;;;3.45;1.60;;;;;;;;;;5078614;28;20115;-43
2021/12/03 08:34:47;;;;;;;1.70;1.40;;;;;;;;;;5074883;28;20045;-41
2021/12/03 08:37:13;;;;;;;7.25;1.30;;;;;;;;;;5077771;28;20036;-44
2021/12/03 08:39:39;;;;;;;4.35;2.03;;;;;;;;;;5078555;28;20036;-45
2021/12/03 08:42:07;;;;;;;4.45;1.60;;;;;;;;;;5078578;28;20028;-45
2021/12/03 08:44:33;;;;;;;1.65;1.38;;;;;;;;;;5073956;28;20401;-45
2021/12/03 08:47:02;;;;;;;2.60;1.50;;;;;;;;;;5075881;28;20032;-44
2021/12/03 08:49:31;;;;;;;1.90;1.50;;;;;;;;;;5074537;28;20496;-44
2021/12/03 08:57:19;;;;;;;2.95;1.38;;;;;;;;;;5080104;28;20679;-44
2021/12/03 08:59:45;;;;;;;4.53;1.83;;;;;;;;;;5077284;28;20043;-43
2021/12/03 09:02:11;;;;;;;4.95;1.60;;;;;;;;;;5078931;28;20028;-44
2021/12/03 09:04:37;;;;;;;1.40;1.30;;;;;;;;;;5080183;28;20044;-42
2021/12/03 09:07:04;;;;;;;6.07;1.50;;;;;;;;;;5080142;28;20385;-44
2021/12/03 09:09:30;;;;;;;4.45;1.45;;;;;;;;;;5075690;28;20035;-45
2021/12/03 09:11:56;;;;;;;4.82;1.58;;;;;;;;;;5074572;28;20111;-45
2021/12/03 09:14:47;;;;;;;1.30;1.20;;;;;;;;;;5074910;28;20059;-42
2021/12/03 09:20:07;;;;;;;5.68;3.67;;;;;;;;;;5070525;28;20035;-42
2021/12/03 09:22:49;;;;;;;2.75;1.63;;;;;;;;;;5075761;28;20759;-42
2021/12/03 09:25:16;;;;;;;2.05;1.20;;;;;;;;;;5077712;28;20122;-42
2021/12/03 09:27:42;;;;;;;2.05;1.30;;;;;;;;;;5078914;28;20028;-43
2021/12/03 09:30:10;;;;;;;1.33;1.10;;;;;;;;;;5077447;28;20470;-42
2021/12/03 09:32:36;;;;;;;1.92;1.30;;;;;;;;;;5076494;28;20086;-44
2021/12/03 09:35:03;;;;;;;4.57;1.40;;;;;;;;;;5079096;28;20465;-44
2021/12/03 09:37:29;;;;;;;5.15;1.75;;;;;;;;;;5073201;28;20490;-43
2021/12/03 09:39:56;;;;;;;2.58;1.13;;;;;;;;;;5073817;28;20094;-43
2021/12/03 09:42:22;;;;;;;1.90;1.10;;;;;;;;;;5073417;28;20483;-42
2021/12/03 09:44:51;;;;;;;1.95;1.23;;;;;;;;;;5075064;28;20033;-43
2021/12/03 09:47:19;;;;;;;1.80;1.38;;;;;;;;;;5075739;28;20028;-43
2021/12/03 09:49:46;;;;;;;2.25;1.40;;;;;;;;;;5072851;28;20023;-43
2021/12/03 09:54:47;;;;;;;1.33;1.00;;;;;;;;;;5070891;28;20033;-43
2021/12/03 09:57:18;;;;;;;2.17;1.17;;;;;;;;;;5073978;28;20032;-41
2021/12/03 10:12:40;;;;;;;4.47;1.50;;;;;;;;;;5075698;28;20037;-44
2021/12/03 10:15:11;;;;;;;2.97;1.20;;;;;;;;;;5077417;28;20038;-45
2021/12/03 10:18:40;;;;;;;2.75;1.38;;;;;;;;;;5071796;28;20059;-45
2021/12/03 10:35:13;;;;;;;2.17;1.50;;;;;;;;;;5079418;28;20500;-45
2021/12/03 10:54:27;;;;;;;4.22;1.40;;;;;;;;;;4989543;28;20077;-44
2021/12/03 10:59:47;;;;;;;2.77;1.23;;;;;;;;;;4988806;28;20495;-44
2021/12/03 11:13:43;;;;;;;1.88;1.08;;;;;;;;;;4988331;28;20125;-42
2021/12/03 11:17:03;;;;;;;1.92;1.23;;;;;;;;;;5006313;28;20128;-43
2021/12/03 13:45:43;;;;;;;1.83;1.20;;;;;;;;;;5021437;28;20133;-44
2021/12/03 14:44:30;;;;;;;3.00;1.60;;;;;;;;;;5035926;28;20045;-44
2021/12/03 14:55:39;;;;;;;3.97;1.90;;;;;;;;;;5035692;28;20045;-44
2021/12/03 14:58:48;;;;;;;2.03;1.63;;;;;;;;;;5042369;28;20496;-44
2021/12/03 15:01:09;;;;;;;3.55;1.40;;;;;;;;;;5034507;28;20052;-45
2021/12/03 15:24:41;;;;;;;1.73;1.63;;;;;;;;;;5074688;28;20047;-46
2021/12/03 15:35:20;;;;;;;3.05;1.75;;;;;;;;;;5074877;28;20086;-45
2021/12/03 15:38:06;;;;;;;2.65;1.90;;;;;;;;;;5073667;28;20020;-46
2021/12/03 15:57:24;;;;;;;5.43;2.17;;;;;;;;;;4969368;28;20125;-44
2021/12/03 16:44:53;;;;;;;5.10;2.45;;;;;;;;;;5073676;28;20147;-42
2021/12/03 16:47:50;;;;;;;3.22;2.25;;;;;;;;;;5074831;28;20507;-42
2021/12/03 16:52:51;;;;;;;5.93;2.75;;;;;;;;;;5076417;28;20036;-43
2021/12/03 16:55:18;;;;;;;3.20;2.38;;;;;;;;;;5075695;28;20376;-42
2021/12/03 16:57:45;;;;;;;5.07;2.55;;;;;;;;;;5075948;28;20032;-44
2021/12/03 17:02:54;;;;;;;3.40;2.22;;;;;;;;;;5073884;28;20488;-44
2021/12/03 17:05:45;;;;;;;5.28;2.80;;;;;;;;;;5075827;28;20039;-43
2021/12/03 17:14:03;;;;;;;3.78;3.03;;;;;;;;;;5076928;28;20085;-43
2021/12/03 17:46:11;;;;;;;4.35;3.75;;;;;;;;;;5083418;28;20033;-44
2021/12/03 17:51:36;;;;;;;7.10;3.25;;;;;;;;;;5081649;28;20434;-44
2021/12/03 17:54:46;;;;;;;4.57;3.63;;;;;;;;;;5080842;28;20059;-45
2021/12/03 17:56:49;;;;;;;4.65;3.03;;;;;;;;;;5079280;28;20500;-43
2021/12/03 18:04:37;;;;;;;3.67;3.30;;;;;;;;;;5081464;28;20168;-43
2021/12/03 18:53:03;;;;;;;5.18;2.70;;;;;;;;;;5064197;28;20525;-43
2021/12/03 18:55:44;;;;;;;5.05;3.40;;;;;;;;;;5064080;28;20036;-42
2021/12/03 18:58:10;;;;;;;9.02;4.32;;;;;;;;;;5064767;28;20045;-42
2021/12/03 19:00:43;;;;;;;8.98;3.70;;;;;;;;;;5061793;28;20020;-43
2021/12/03 19:08:38;;;;;;;6.45;4.28;;;;;;;;;;5065075;28;20082;-43
2021/12/03 19:11:15;;;;;;;5.70;3.45;;;;;;;;;;5063054;28;20102;-43
2021/12/03 19:13:41;;;;;;;4.82;3.72;;;;;;;;;;5063410;28;20032;-43
2021/12/03 19:16:11;;;;;;;5.20;3.17;;;;;;;;;;5060314;28;20039;-43
2021/12/03 19:18:38;;;;;;;3.97;3.50;;;;;;;;;;5065419;28;20071;-44
2021/12/03 19:21:10;;;;;;;6.95;3.47;;;;;;;;;;5066714;28;20405;-42
2021/12/03 19:23:36;;;;;;;5.70;3.90;;;;;;;;;;5068748;28;20114;-43
2021/12/03 19:26:02;;;;;;;6.80;4.85;;;;;;;;;;5079867;28;20117;-42
2021/12/03 19:28:28;;;;;;;5.63;4.07;;;;;;;;;;5083528;28;20047;-42
2021/12/03 19:30:56;;;;;;;7.22;3.53;;;;;;;;;;5075104;28;20040;-43
2021/12/03 19:33:22;;;;;;;3.80;2.90;;;;;;;;;;5082430;28;20033;-42
2021/12/03 19:35:48;;;;;;;10.15;6.03;;;;;;;;;;5075988;28;20032;-43
2021/12/03 19:38:16;;;;;;;5.68;3.45;;;;;;;;;;5076336;28;20032;-43
2021/12/03 19:40:51;;;;;;;5.30;3.92;;;;;;;;;;5077408;28;20130;-43
2021/12/03 19:43:19;;;;;;;5.80;3.88;;;;;;;;;;5084350;28;20039;-46
2021/12/03 19:45:55;;;;;;;7.60;4.78;;;;;;;;;;5081136;28;20032;-43
2021/12/03 19:48:20;;;;;;;4.35;3.60;;;;;;;;;;5079162;28;20034;-43
2021/12/03 19:50:54;;;;;;;6.03;4.03;;;;;;;;;;5075820;28;20369;-43
2021/12/03 19:53:27;;;;;;;5.38;3.83;;;;;;;;;;5071903;28;20024;-44
2021/12/03 19:55:52;;;;;;;6.05;2.95;;;;;;;;;;5071836;28;20032;-44
2021/12/03 19:58:20;;;;;;;4.72;3.10;;;;;;;;;;5073413;28;20078;-43
2021/12/03 20:00:48;;;;;;;4.43;2.90;;;;;;;;;;5074684;28;20051;-42
2021/12/03 20:03:14;;;;;;;3.10;2.60;;;;;;;;;;5074589;28;20085;-43
2021/12/03 20:05:40;;;;;;;4.10;2.67;;;;;;;;;;5074835;28;20067;-43
2021/12/03 20:08:07;;;;;;;3.30;2.97;;;;;;;;;;5075191;28;20519;-43
2021/12/03 20:10:38;;;;;;;12.23;7.63;;;;;;;;;;5075534;28;20050;-46
2021/12/03 20:13:06;;;;;;;12.57;7.22;;;;;;;;;;5073228;28;20723;-43
2021/12/03 20:15:37;;;;;;;13.13;7.82;;;;;;;;;;5081758;28;20112;-43
2021/12/03 20:20:31;;;;;;;14.23;7.65;;;;;;;;;;5076064;28;20032;-43
2021/12/03 20:23:06;;;;;;;10.25;6.78;;;;;;;;;;5072383;28;20662;-43
2021/12/03 20:28:17;;;;;;;7.18;5.30;;;;;;;;;;5076282;28;20081;-45
2021/12/03 20:36:02;;;;;;;3.92;3.10;;;;;;;;;;5076389;28;20028;-43
2021/12/03 20:38:29;;;;;;;4.20;3.80;;;;;;;;;;5080414;28;20111;-44
2021/12/03 20:41:00;;;;;;;10.90;4.88;;;;;;;;;;5074254;28;20035;-45
2021/12/03 20:43:59;;;;;;;6.25;4.10;;;;;;;;;;5071503;28;20087;-44
2021/12/03 20:49:19;;;;;;;5.25;3.95;;;;;;;;;;5076423;28;20027;-44
2021/12/03 20:54:38;;;;;;;9.20;5.13;;;;;;;;;;5073179;28;20386;-44
2021/12/03 21:08:17;;;;;;;12.65;7.20;;;;;;;;;;5043339;28;20035;-44
2021/12/03 21:11:02;;;;;;;13.87;7.67;;;;;;;;;;5044577;28;20112;-44
2021/12/03 21:13:31;;;;;;;10.85;6.45;;;;;;;;;;5042525;28;20105;-44
2021/12/03 21:16:13;;;;;;;11.45;6.63;;;;;;;;;;5046495;28;20203;-43
2021/12/03 21:23:47;;;;;;;6.70;5.10;;;;;;;;;;5043334;28;20045;-45
2021/12/03 21:26:18;;;;;;;8.23;6.47;;;;;;;;;;5043173;28;20041;-44
2021/12/03 21:29:08;;;;;;;12.35;7.15;;;;;;;;;;5042573;28;20029;-44
2021/12/03 21:31:35;;;;;;;16.48;11.13;;;;;;;;;;5043253;28;20102;-44
2021/12/03 21:42:05;;;;;;;18.30;11.95;;;;;;;;;;5075172;28;20099;-44
2021/12/03 21:44:31;;;;;;;14.80;9.43;;;;;;;;;;5077190;28;20103;-44
2021/12/03 21:46:57;;;;;;;19.75;10.10;;;;;;;;;;5077978;28;20039;-44
2021/12/03 21:49:23;;;;;;;19.15;9.27;;;;;;;;;;5074356;28;20032;-44
2021/12/03 21:51:49;;;;;;;20.77;9.25;;;;;;;;;;5078733;28;20090;-44
2021/12/03 21:54:15;;;;;;;15.95;8.77;;;;;;;;;;5071140;28;20059;-44
2021/12/03 21:56:44;;;;;;;14.23;8.70;;;;;;;;;;5080904;28;20377;-43
2021/12/03 21:59:11;;;;;;;11.98;7.95;;;;;;;;;;5075448;28;20039;-44
2021/12/03 22:01:37;;;;;;;12.45;7.32;;;;;;;;;;5077421;28;20115;-44
2021/12/03 22:04:03;;;;;;;14.52;7.22;;;;;;;;;;5079963;28;20169;-44
2021/12/03 22:06:29;;;;;;;10.13;7.25;;;;;;;;;;5074565;28;20483;-43
2021/12/03 22:08:56;;;;;;;12.80;7.70;;;;;;;;;;5075319;28;20040;-44
2021/12/03 22:11:27;;;;;;;13.18;9.30;;;;;;;;;;5076333;28;20033;-44
2021/12/03 22:13:53;;;;;;;10.00;8.68;;;;;;;;;;5075737;28;20115;-44
2021/12/03 22:16:19;;;;;;;13.10;8.90;;;;;;;;;;5075394;28;20029;-44
2021/12/03 22:18:47;;;;;;;15.05;8.75;;;;;;;;;;5083186;28;20028;-45
2021/12/03 22:21:17;;;;;;;12.02;8.68;;;;;;;;;;5074282;28;21526;-44
2021/12/03 22:23:44;;;;;;;13.68;8.27;;;;;;;;;;5079478;28;20123;-46
2021/12/03 22:26:12;;;;;;;14.73;8.73;;;;;;;;;;5074904;28;20028;-44
2021/12/03 22:28:39;;;;;;;14.60;9.00;;;;;;;;;;5085965;28;20162;-44
2021/12/03 22:31:05;;;;;;;11.95;8.65;;;;;;;;;;5087503;28;20035;-43
2021/12/03 22:33:31;;;;;;;13.63;8.68;;;;;;;;;;5082985;28;20094;-44
2021/12/03 22:35:57;;;;;;;13.10;8.60;;;;;;;;;;5082000;28;20054;-45
2021/12/03 22:38:23;;;;;;;20.33;10.13;;;;;;;;;;5080002;28;20453;-43
2021/12/03 22:40:49;;;;;;;15.57;9.30;;;;;;;;;;5073697;28;20039;-43
2021/12/03 22:43:17;;;;;;;14.63;9.02;;;;;;;;;;5086834;28;20089;-45
2021/12/03 22:46:36;;;;;;;16.67;11.13;;;;;;;;;;5077900;28;20035;-44
2021/12/03 22:51:08;;;;;;;19.30;12.18;;;;;;;;;;5083752;28;20032;-44
2021/12/03 22:53:34;;;;;;;33.42;16.70;;;;;;;;;;5080905;28;20401;-45
2021/12/03 22:56:00;;;;;;;32.17;14.85;;;;;;;;;;5081705;28;20027;-44
2021/12/03 22:58:26;;;;;;;27.58;14.98;;;;;;;;;;5087035;28;20035;-44
2021/12/03 23:01:06;;;;;;;24.33;13.35;;;;;;;;;;5076648;28;20036;-44
2021/12/03 23:03:34;;;;;;;29.10;13.65;;;;;;;;;;5078629;28;20028;-44
2021/12/03 23:06:00;;;;;;;25.83;15.00;;;;;;;;;;5080062;28;20039;-44
2021/12/03 23:08:27;;;;;;;24.33;14.75;;;;;;;;;;5081273;28;20465;-45
2021/12/03 23:10:54;;;;;;;26.25;14.35;;;;;;;;;;5075366;28;20178;-44
2021/12/03 23:13:23;;;;;;;25.45;15.38;;;;;;;;;;5084315;28;20036;-46
2021/12/03 23:15:49;;;;;;;22.38;12.10;;;;;;;;;;5083992;28;20143;-45
2021/12/03 23:18:15;;;;;;;29.17;13.98;;;;;;;;;;5082180;28;20039;-44
2021/12/03 23:20:41;;;;;;;17.83;11.70;;;;;;;;;;5076763;28;20700;-43
2021/12/03 23:23:09;;;;;;;16.80;10.25;;;;;;;;;;5084058;28;20035;-44